Time;durP1;ratioP1;P1;durP2;ratioP2;P2;SDS_P1;SDS_P2;PMS_P1;PMS_P2;Temp;Humidity;BMP_temperature;BMP_pressure;BME280_temperature;BME280_humidity;BME280_pressure;Samples;Min_cycle;Max_cycle;Signal;HPM_P1;HPM_P2
2021/03/11 00:00:39;;;;;;;13.93;8.68;;;2.40;99.90;;;;;;5061278;28;21862;-81
2021/03/11 00:03:06;;;;;;;17.15;9.15;;;2.50;99.90;;;;;;5064241;28;20085;-81
2021/03/11 00:05:33;;;;;;;15.13;8.85;;;2.50;99.90;;;;;;5085635;28;20093;-81
2021/03/11 00:07:59;;;;;;;13.18;8.40;;;2.50;99.90;;;;;;5069336;28;20107;-81
2021/03/11 00:10:25;;;;;;;13.55;9.25;;;2.50;99.90;;;;;;5067414;28;20187;-81
2021/03/11 00:12:51;;;;;;;13.57;8.73;;;2.50;99.90;;;;;;5075896;28;20069;-82
2021/03/11 00:15:20;;;;;;;17.35;10.05;;;2.50;99.90;;;;;;5066041;28;20075;-82
2021/03/11 00:17:46;;;;;;;14.05;9.02;;;2.50;99.90;;;;;;5053262;28;20098;-83
2021/03/11 00:20:14;;;;;;;13.70;7.82;;;2.60;99.90;;;;;;5085684;28;20073;-82
2021/03/11 00:22:40;;;;;;;14.45;8.82;;;2.60;99.90;;;;;;5052853;28;20076;-82
2021/03/11 00:25:11;;;;;;;14.45;8.60;;;2.60;99.90;;;;;;5083618;28;20073;-82
2021/03/11 00:27:37;;;;;;;16.45;8.63;;;2.60;99.90;;;;;;5051750;28;20158;-82
2021/03/11 00:30:05;;;;;;;13.80;7.85;;;2.60;99.90;;;;;;5052113;28;20207;-81
2021/03/11 00:32:31;;;;;;;13.15;7.72;;;2.60;99.90;;;;;;5068127;28;20089;-81
2021/03/11 00:34:57;;;;;;;13.98;8.25;;;2.60;99.90;;;;;;5068669;28;20566;-82
2021/03/11 00:37:24;;;;;;;14.32;7.80;;;2.60;99.90;;;;;;5081015;28;20148;-82
2021/03/11 00:39:49;;;;;;;13.27;8.23;;;2.70;99.90;;;;;;5070329;28;20082;-82
2021/03/11 00:42:15;;;;;;;12.82;7.53;;;2.80;99.90;;;;;;5071510;28;20081;-83
2021/03/11 00:44:41;;;;;;;11.13;7.10;;;2.70;99.90;;;;;;5068433;28;20131;-83
2021/03/11 00:47:07;;;;;;;11.13;7.00;;;2.70;99.90;;;;;;5057672;28;20629;-82
2021/03/11 00:49:34;;;;;;;13.88;8.05;;;2.70;99.90;;;;;;5067151;28;20097;-84
2021/03/11 00:52:00;;;;;;;11.77;7.57;;;2.70;99.90;;;;;;5089264;28;20077;-83
2021/03/11 00:54:27;;;;;;;11.13;6.68;;;2.70;99.90;;;;;;5071455;28;20081;-82
2021/03/11 00:56:52;;;;;;;11.50;7.32;;;2.70;99.90;;;;;;5071426;28;20483;-80
2021/03/11 00:59:18;;;;;;;11.00;6.57;;;2.80;99.90;;;;;;5064394;28;20111;-83
2021/03/11 01:01:44;;;;;;;10.38;5.65;;;2.70;99.90;;;;;;5063958;28;20176;-82
2021/03/11 01:04:09;;;;;;;11.23;5.97;;;2.80;99.90;;;;;;5071301;28;20096;-83
2021/03/11 01:06:35;;;;;;;13.57;6.78;;;2.80;99.90;;;;;;5062137;28;20098;-82
2021/03/11 01:09:01;;;;;;;12.25;6.13;;;2.80;99.90;;;;;;5061001;28;20105;-83
2021/03/11 01:11:27;;;;;;;9.13;5.95;;;2.80;99.90;;;;;;5069957;28;20091;-83
2021/03/11 01:13:54;;;;;;;10.35;6.35;;;2.80;99.90;;;;;;5071247;28;20081;-80
2021/03/11 01:16:23;;;;;;;11.07;6.32;;;2.80;99.90;;;;;;5072246;28;20108;-82
2021/03/11 01:18:49;;;;;;;10.23;6.03;;;2.90;99.90;;;;;;5051613;28;20154;-81
2021/03/11 01:21:15;;;;;;;10.18;6.35;;;2.80;99.90;;;;;;5067563;28;20076;-81
2021/03/11 01:23:41;;;;;;;9.70;5.57;;;2.90;99.90;;;;;;5065457;28;20590;-81
2021/03/11 01:26:07;;;;;;;9.15;5.47;;;2.90;99.90;;;;;;5056039;28;20092;-81
2021/03/11 01:28:34;;;;;;;9.70;5.82;;;2.80;99.90;;;;;;5059567;28;20078;-81
2021/03/11 01:30:59;;;;;;;9.88;6.05;;;2.80;99.90;;;;;;5064883;28;20085;-81
2021/03/11 01:33:25;;;;;;;9.55;5.40;;;2.80;99.90;;;;;;5058156;28;20112;-81
2021/03/11 01:35:51;;;;;;;7.65;5.20;;;2.80;99.90;;;;;;5067406;28;20112;-80
2021/03/11 01:38:16;;;;;;;10.60;5.60;;;2.90;99.90;;;;;;5068974;28;20085;-80
2021/03/11 01:40:42;;;;;;;7.22;4.85;;;2.90;99.90;;;;;;5068546;28;20074;-80
2021/03/11 01:43:11;;;;;;;11.20;6.05;;;3.00;99.90;;;;;;5062949;28;20085;-81
2021/03/11 01:45:38;;;;;;;8.43;5.13;;;2.90;99.90;;;;;;5070371;28;20230;-80
2021/03/11 01:48:04;;;;;;;8.55;5.40;;;3.00;99.90;;;;;;5060486;28;20121;-81
2021/03/11 01:50:30;;;;;;;8.90;5.15;;;2.90;99.90;;;;;;5052132;28;20111;-82
2021/03/11 01:52:56;;;;;;;8.32;4.90;;;3.00;99.90;;;;;;5052301;28;20470;-81
2021/03/11 01:55:22;;;;;;;8.50;5.10;;;2.90;99.90;;;;;;5062402;28;20077;-81
2021/03/11 01:57:48;;;;;;;7.22;4.75;;;2.80;99.90;;;;;;5070638;28;20230;-81
2021/03/11 02:00:15;;;;;;;8.15;4.90;;;2.90;99.90;;;;;;5052993;28;20123;-80
2021/03/11 02:02:44;;;;;;;7.97;4.53;;;2.80;99.90;;;;;;5070515;28;20084;-80
2021/03/11 02:05:14;;;;;;;6.40;4.53;;;2.80;99.90;;;;;;5062474;28;20149;-81
2021/03/11 02:07:46;;;;;;;6.82;4.13;;;2.80;99.90;;;;;;5061417;28;20097;-81
2021/03/11 02:10:17;;;;;;;8.00;5.65;;;2.70;99.90;;;;;;5060957;28;20952;-80
2021/03/11 02:13:06;;;;;;;8.63;4.50;;;2.60;99.90;;;;;;5064209;28;20081;-80
2021/03/11 02:15:42;;;;;;;8.60;5.22;;;2.70;99.90;;;;;;5067633;28;20065;-80
2021/03/11 02:18:26;;;;;;;9.75;5.28;;;2.70;99.90;;;;;;5053555;28;20083;-80
2021/03/11 02:21:10;;;;;;;7.78;4.72;;;2.60;99.90;;;;;;5071296;28;20560;-80
2021/03/11 02:23:57;;;;;;;7.43;4.78;;;2.70;99.90;;;;;;5053543;28;20088;-81
2021/03/11 02:26:51;;;;;;;7.97;4.38;;;2.80;99.90;;;;;;5064718;28;20586;-80
2021/03/11 02:29:25;;;;;;;7.45;4.85;;;2.60;99.90;;;;;;5053859;28;20149;-81
2021/03/11 02:31:54;;;;;;;6.20;4.30;;;2.70;99.90;;;;;;5066029;28;20140;-81
2021/03/11 02:34:27;;;;;;;7.30;4.57;;;2.70;99.90;;;;;;5067247;28;20677;-81
2021/03/11 02:36:58;;;;;;;9.68;4.57;;;2.70;99.90;;;;;;5068845;28;20097;-81
2021/03/11 02:39:28;;;;;;;7.15;4.50;;;2.60;99.90;;;;;;5057651;28;20074;-80
2021/03/11 02:41:56;;;;;;;8.85;5.15;;;2.70;99.90;;;;;;5071382;28;20084;-81
2021/03/11 02:44:25;;;;;;;8.65;4.88;;;2.70;99.90;;;;;;5057742;28;20085;-81
2021/03/11 02:46:51;;;;;;;7.38;5.10;;;2.80;99.90;;;;;;5056209;28;20101;-81
2021/03/11 02:49:20;;;;;;;7.60;4.68;;;2.80;99.90;;;;;;5066150;28;20577;-81
2021/03/11 02:51:48;;;;;;;7.97;4.55;;;2.90;99.90;;;;;;5062832;28;20092;-81
2021/03/11 02:54:14;;;;;;;8.73;4.15;;;2.90;99.90;;;;;;5077776;28;20128;-80
2021/03/11 02:56:40;;;;;;;7.40;4.07;;;2.90;99.90;;;;;;5083416;28;20215;-81
2021/03/11 02:59:08;;;;;;;8.82;5.07;;;2.80;99.90;;;;;;5064208;28;20100;-81
2021/03/11 03:01:34;;;;;;;7.50;4.05;;;2.70;99.90;;;;;;5071452;28;20077;-81
2021/03/11 03:04:02;;;;;;;7.25;4.47;;;2.80;99.90;;;;;;5063406;28;20096;-81
2021/03/11 03:06:31;;;;;;;6.82;4.32;;;2.80;99.90;;;;;;5057323;28;20121;-81
2021/03/11 03:08:57;;;;;;;9.00;4.22;;;2.80;99.90;;;;;;5069219;28;21047;-80
2021/03/11 03:11:27;;;;;;;6.10;4.07;;;2.80;99.90;;;;;;5063296;28;20081;-81
2021/03/11 03:13:53;;;;;;;6.00;4.00;;;2.80;99.90;;;;;;5061158;28;20116;-83
2021/03/11 03:16:20;;;;;;;7.20;4.18;;;2.90;99.90;;;;;;5064981;28;20097;-81
2021/03/11 03:18:46;;;;;;;5.15;3.85;;;2.90;99.90;;;;;;5098588;28;20077;-81
2021/03/11 03:21:13;;;;;;;6.28;3.92;;;2.90;99.90;;;;;;5063219;28;20095;-81
2021/03/11 03:23:40;;;;;;;4.60;3.15;;;3.00;99.90;;;;;;5060548;28;20138;-81
2021/03/11 03:26:05;;;;;;;7.38;4.20;;;3.00;99.90;;;;;;5086321;28;20089;-80
2021/03/11 03:28:31;;;;;;;6.80;3.53;;;3.00;99.90;;;;;;5064033;28;20077;-81
2021/03/11 03:30:57;;;;;;;7.47;3.92;;;3.10;99.90;;;;;;5062335;28;20089;-82
2021/03/11 03:33:23;;;;;;;5.85;4.20;;;3.10;99.90;;;;;;5061790;28;20516;-81
2021/03/11 03:35:49;;;;;;;5.00;3.50;;;3.00;99.90;;;;;;5068506;28;20100;-81
2021/03/11 03:38:15;;;;;;;7.18;3.97;;;3.00;99.90;;;;;;5068623;28;20080;-81
2021/03/11 03:40:41;;;;;;;5.53;3.67;;;3.00;99.90;;;;;;5069868;28;20548;-82
2021/03/11 03:43:13;;;;;;;5.82;3.38;;;3.10;99.90;;;;;;5062743;28;20551;-82
2021/03/11 03:45:44;;;;;;;7.88;3.97;;;3.20;99.90;;;;;;5061384;28;20079;-81
2021/03/11 03:48:18;;;;;;;6.47;2.92;;;3.10;99.90;;;;;;5066459;28;20119;-80
2021/03/11 03:50:48;;;;;;;3.90;3.17;;;3.10;99.90;;;;;;5058920;28;20102;-81
2021/03/11 03:53:29;;;;;;;6.90;3.25;;;3.10;99.90;;;;;;5072494;28;20078;-82
2021/03/11 03:56:00;;;;;;;6.50;3.47;;;3.20;99.90;;;;;;5059068;28;20097;-82
2021/03/11 03:58:32;;;;;;;5.43;3.28;;;3.20;99.90;;;;;;5057005;28;20079;-81
2021/03/11 04:01:08;;;;;;;7.00;3.85;;;3.20;99.90;;;;;;5065571;28;20069;-81
2021/03/11 04:03:36;;;;;;;6.25;3.90;;;3.20;99.90;;;;;;5073993;28;20081;-80
2021/03/11 04:06:02;;;;;;;6.85;3.25;;;3.30;99.90;;;;;;5068399;28;20124;-81
2021/03/11 04:08:29;;;;;;;5.10;3.20;;;3.30;99.90;;;;;;5091944;28;20598;-81
2021/03/11 04:10:57;;;;;;;6.07;3.75;;;3.40;99.90;;;;;;5070041;28;20074;-81
2021/03/11 04:13:28;;;;;;;5.85;3.35;;;3.40;99.90;;;;;;5075394;28;20080;-80
2021/03/11 04:15:56;;;;;;;3.42;2.38;;;3.40;99.90;;;;;;5066953;28;20155;-79
2021/03/11 04:18:33;;;;;;;4.10;2.65;;;3.40;99.90;;;;;;5061215;28;20103;-79
2021/03/11 04:21:01;;;;;;;4.80;2.80;;;3.60;99.90;;;;;;5102223;28;20081;-81
2021/03/11 04:23:31;;;;;;;5.97;3.97;;;3.60;99.90;;;;;;5072452;28;20482;-81
2021/03/11 04:25:57;;;;;;;4.43;2.75;;;3.60;99.90;;;;;;5069742;28;20104;-82
2021/03/11 04:28:23;;;;;;;4.53;2.55;;;3.70;99.90;;;;;;5062877;28;20073;-82
2021/03/11 04:30:49;;;;;;;3.50;1.98;;;3.70;99.90;;;;;;5078648;28;20081;-81
2021/03/11 04:33:15;;;;;;;4.55;2.58;;;3.90;99.90;;;;;;5074785;28;20073;-81
2021/03/11 04:35:41;;;;;;;4.07;2.38;;;3.90;99.90;;;;;;5075010;28;20137;-82
2021/03/11 04:38:07;;;;;;;5.00;3.33;;;4.00;99.90;;;;;;5073397;28;20127;-81
2021/03/11 04:40:33;;;;;;;5.18;2.60;;;4.00;99.90;;;;;;5062861;28;20082;-82
2021/03/11 04:43:01;;;;;;;5.88;3.53;;;4.10;99.90;;;;;;5068579;28;20172;-82
2021/03/11 04:45:27;;;;;;;5.30;3.08;;;4.10;99.90;;;;;;5105095;28;20092;-82
2021/03/11 04:47:53;;;;;;;5.03;2.88;;;4.10;99.90;;;;;;5069564;28;20142;-83
2021/03/11 04:50:19;;;;;;;5.63;2.67;;;4.10;99.90;;;;;;5068600;28;20188;-83
2021/03/11 04:52:45;;;;;;;3.35;2.28;;;4.10;99.90;;;;;;5082361;28;20321;-83
2021/03/11 04:55:11;;;;;;;5.78;2.85;;;4.10;99.90;;;;;;5083207;28;20084;-82
2021/03/11 04:57:37;;;;;;;5.03;3.20;;;4.20;99.90;;;;;;5085048;28;20133;-81
2021/03/11 05:00:05;;;;;;;8.25;3.90;;;4.20;99.90;;;;;;5076992;28;20082;-83
2021/03/11 05:02:33;;;;;;;6.22;3.58;;;4.10;99.90;;;;;;5062047;28;20091;-83
2021/03/11 05:05:07;;;;;;;4.72;3.47;;;4.10;99.90;;;;;;5067282;28;20085;-83
2021/03/11 05:07:36;;;;;;;6.60;3.53;;;4.00;99.90;;;;;;5067975;28;20101;-83
2021/03/11 05:10:02;;;;;;;4.68;3.05;;;4.00;99.90;;;;;;5073208;28;20087;-83
2021/03/11 05:12:28;;;;;;;5.07;3.25;;;4.00;99.90;;;;;;5072075;28;20093;-82
2021/03/11 05:14:54;;;;;;;7.03;3.17;;;4.00;99.90;;;;;;5078551;28;20085;-82
2021/03/11 05:17:19;;;;;;;5.25;3.20;;;3.90;99.90;;;;;;5081001;28;20101;-83
2021/03/11 05:19:45;;;;;;;5.45;3.08;;;3.90;99.90;;;;;;5076381;28;20085;-83
2021/03/11 05:22:11;;;;;;;6.32;3.55;;;3.90;99.90;;;;;;5076780;28;20143;-83
2021/03/11 05:24:36;;;;;;;5.70;3.78;;;3.70;99.90;;;;;;5068926;28;20074;-81
2021/03/11 05:27:02;;;;;;;5.10;3.28;;;3.70;99.90;;;;;;5076583;28;20529;-83
2021/03/11 05:29:28;;;;;;;5.10;3.55;;;3.70;99.90;;;;;;5073503;28;20119;-83
2021/03/11 05:31:53;;;;;;;4.65;3.33;;;3.70;99.90;;;;;;5098262;27;20081;-83
2021/03/11 05:34:19;;;;;;;5.65;3.58;;;3.70;99.90;;;;;;5075060;28;20077;-84
2021/03/11 05:36:45;;;;;;;6.28;3.22;;;3.70;99.90;;;;;;5059762;28;20239;-83
2021/03/11 05:39:10;;;;;;;4.88;2.90;;;3.70;99.90;;;;;;5066601;28;20089;-84
2021/03/11 05:41:40;;;;;;;4.55;3.13;;;3.60;99.90;;;;;;5076049;28;20089;-84
2021/03/11 05:44:07;;;;;;;4.82;3.13;;;3.70;99.90;;;;;;5077058;28;20092;-84
2021/03/11 05:46:39;;;;;;;7.13;4.10;;;3.70;99.90;;;;;;5068100;28;20101;-83
2021/03/11 05:49:05;;;;;;;4.80;3.35;;;3.60;99.90;;;;;;5073251;28;20105;-82
2021/03/11 05:51:31;;;;;;;6.57;3.40;;;3.60;99.90;;;;;;5060626;28;20082;-82
2021/03/11 05:53:58;;;;;;;5.13;3.00;;;3.60;99.90;;;;;;5058025;28;20146;-82
2021/03/11 05:56:25;;;;;;;5.28;3.30;;;3.60;99.90;;;;;;5073212;28;20775;-83
2021/03/11 05:58:51;;;;;;;5.70;3.30;;;3.60;99.90;;;;;;5073945;28;20599;-82
2021/03/11 06:01:18;;;;;;;4.65;2.90;;;3.60;99.90;;;;;;5060447;28;20087;-84
2021/03/11 06:03:47;;;;;;;3.90;2.70;;;3.70;99.90;;;;;;5076435;28;20092;-83
2021/03/11 06:06:14;;;;;;;7.05;3.72;;;3.70;99.90;;;;;;5074826;28;20127;-83
2021/03/11 06:08:40;;;;;;;4.72;3.15;;;3.80;99.90;;;;;;5077834;28;20092;-84
2021/03/11 06:11:08;;;;;;;5.47;3.53;;;3.80;99.90;;;;;;5075632;28;20088;-83
2021/03/11 06:13:34;;;;;;;4.53;3.03;;;3.80;99.90;;;;;;5075612;28;20081;-83
2021/03/11 06:16:13;;;;;;;3.95;2.53;;;3.90;99.90;;;;;;5077096;28;20569;-84
2021/03/11 06:18:40;;;;;;;4.07;2.42;;;3.90;99.90;;;;;;5075231;28;20144;-83
2021/03/11 06:21:06;;;;;;;5.55;3.05;;;3.90;99.90;;;;;;5073612;28;20077;-85
2021/03/11 06:23:32;;;;;;;3.35;2.15;;;4.00;99.90;;;;;;5072951;28;20131;-84
2021/03/11 06:25:58;;;;;;;4.20;2.42;;;4.00;99.90;;;;;;5068502;28;20100;-83
2021/03/11 06:28:57;;;;;;;3.92;2.45;;;4.00;99.90;;;;;;5076043;28;20081;-83
2021/03/11 06:31:31;;;;;;;4.85;2.08;;;4.10;99.90;;;;;;5041338;28;20089;-81
2021/03/11 06:33:58;;;;;;;7.35;4.75;;;4.10;99.90;;;;;;5060733;28;20089;-82
2021/03/11 06:36:33;;;;;;;5.20;2.88;;;4.10;99.90;;;;;;5066068;28;20101;-83
2021/03/11 06:38:59;;;;;;;4.95;2.70;;;4.10;99.90;;;;;;5073501;28;20410;-82
2021/03/11 06:41:41;;;;;;;3.90;2.42;;;4.20;99.90;;;;;;5076285;28;20159;-81
2021/03/11 06:44:07;;;;;;;43.05;23.65;;;4.20;99.90;;;;;;5075818;28;20108;-80
2021/03/11 06:46:33;;;;;;;8.18;4.97;;;4.20;99.90;;;;;;5092060;28;20097;-82
2021/03/11 06:49:10;;;;;;;5.57;3.10;;;4.30;99.90;;;;;;5070176;28;20089;-81
2021/03/11 06:51:38;;;;;;;5.20;2.47;;;4.40;99.30;;;;;;5081331;28;20120;-81
2021/03/11 06:54:08;;;;;;;5.38;2.40;;;4.40;99.80;;;;;;5076015;28;20537;-81
2021/03/11 06:56:34;;;;;;;5.93;2.80;;;4.40;99.70;;;;;;5071514;28;20151;-81
2021/03/11 06:59:05;;;;;;;3.95;2.40;;;4.50;98.50;;;;;;5070987;28;20138;-81
2021/03/11 07:01:33;;;;;;;5.88;2.85;;;4.50;99.70;;;;;;5075921;28;20112;-80
2021/03/11 07:04:01;;;;;;;3.88;2.42;;;4.50;99.90;;;;;;5074463;28;20076;-82
2021/03/11 07:06:38;;;;;;;4.47;2.33;;;4.60;99.90;;;;;;5075955;28;20093;-84
2021/03/11 07:09:07;;;;;;;5.38;2.30;;;4.60;99.90;;;;;;5074987;28;20102;-84
2021/03/11 07:11:33;;;;;;;3.20;2.00;;;4.70;99.90;;;;;;5084520;28;20077;-83
2021/03/11 07:14:01;;;;;;;4.35;2.20;;;4.70;99.90;;;;;;5070764;28;20146;-83
2021/03/11 07:16:32;;;;;;;3.45;2.38;;;4.70;99.90;;;;;;5069951;28;20100;-83
2021/03/11 07:19:15;;;;;;;3.28;2.28;;;4.80;99.90;;;;;;5074376;28;20069;-83
2021/03/11 07:21:49;;;;;;;2.97;2.15;;;4.80;99.90;;;;;;5071423;28;20147;-82
2021/03/11 07:24:34;;;;;;;4.55;2.33;;;4.80;99.90;;;;;;5065215;28;20073;-82
2021/03/11 07:27:00;;;;;;;4.35;2.20;;;4.80;99.90;;;;;;5076561;28;20156;-80
2021/03/11 07:29:26;;;;;;;3.08;2.05;;;4.90;99.90;;;;;;5074735;28;20088;-79
2021/03/11 07:31:56;;;;;;;3.80;1.85;;;5.00;99.90;;;;;;5070696;28;20559;-79
2021/03/11 07:34:26;;;;;;;2.53;1.60;;;5.10;99.90;;;;;;5066019;28;20498;-80
2021/03/11 07:36:57;;;;;;;4.13;1.60;;;5.10;99.90;;;;;;5071328;28;20154;-79
2021/03/11 07:39:35;;;;;;;2.90;1.50;;;5.20;99.90;;;;;;5075219;28;20077;-79
2021/03/11 07:42:01;;;;;;;3.03;2.25;;;5.20;99.90;;;;;;5066568;28;20084;-80
2021/03/11 07:44:30;;;;;;;3.45;2.05;;;5.30;99.90;;;;;;5098745;27;20135;-80
2021/03/11 07:46:57;;;;;;;2.67;1.70;;;5.30;99.90;;;;;;5070323;28;20093;-79
2021/03/11 07:49:23;;;;;;;2.58;1.85;;;5.40;99.90;;;;;;5070350;28;20612;-79
2021/03/11 07:51:50;;;;;;;3.60;1.77;;;5.50;99.90;;;;;;5075979;28;20081;-80
2021/03/11 07:54:17;;;;;;;2.55;1.85;;;5.20;99.90;;;;;;5066936;28;20545;-79
2021/03/11 07:56:42;;;;;;;2.28;1.70;;;5.40;99.90;;;;;;5070316;28;20098;-79
2021/03/11 07:59:11;;;;;;;3.42;2.22;;;5.50;99.90;;;;;;5093719;27;20088;-79
2021/03/11 08:01:47;;;;;;;2.40;1.88;;;5.30;99.90;;;;;;5070255;28;20101;-79
2021/03/11 08:04:17;;;;;;;2.22;1.85;;;5.50;99.90;;;;;;5054898;28;20900;-79
2021/03/11 08:06:43;;;;;;;4.97;1.80;;;5.60;99.90;;;;;;5073038;28;20125;-79
2021/03/11 08:09:08;;;;;;;3.40;1.40;;;5.90;99.90;;;;;;5069383;28;20450;-79
2021/03/11 08:11:37;;;;;;;3.75;1.80;;;6.00;99.90;;;;;;5066946;28;20163;-79
2021/03/11 08:14:34;;;;;;;2.75;1.00;;;6.20;99.90;;;;;;5099423;28;20528;-79
2021/03/11 08:17:38;;;;;;;3.38;1.80;;;6.40;99.20;;;;;;5060133;28;20184;-79
2021/03/11 08:20:41;;;;;;;1.33;0.80;;;6.60;97.40;;;;;;5064691;28;20564;-79
2021/03/11 08:23:07;;;;;;;1.77;1.10;;;6.70;98.10;;;;;;5070434;28;20604;-79
2021/03/11 08:25:33;;;;;;;2.20;0.93;;;6.60;99.90;;;;;;5057037;28;20105;-79
2021/03/11 08:28:08;;;;;;;2.45;1.13;;;6.70;99.00;;;;;;5060915;28;20769;-79
2021/03/11 08:30:40;;;;;;;2.17;1.30;;;6.60;99.60;;;;;;5062723;28;20101;-79
2021/03/11 08:33:06;;;;;;;1.85;1.45;;;6.60;99.70;;;;;;5064812;28;20562;-79
2021/03/11 08:35:36;;;;;;;2.33;1.45;;;6.70;99.40;;;;;;5060383;28;20085;-79
2021/03/11 08:38:22;;;;;;;2.97;1.30;;;6.60;99.90;;;;;;5066956;28;20081;-79
2021/03/11 08:41:00;;;;;;;1.98;1.13;;;6.60;99.90;;;;;;5076354;28;20147;-79
2021/03/11 08:43:38;;;;;;;2.58;1.60;;;6.70;99.90;;;;;;5068096;28;20146;-78
2021/03/11 08:46:08;;;;;;;1.80;1.02;;;6.70;99.90;;;;;;5068355;28;20093;-79
2021/03/11 08:48:58;;;;;;;1.98;1.02;;;6.80;99.90;;;;;;5070389;28;20088;-78
2021/03/11 08:51:23;;;;;;;1.77;1.17;;;6.80;99.90;;;;;;5064465;28;20081;-78
2021/03/11 08:53:56;;;;;;;2.35;1.40;;;6.90;98.80;;;;;;5069455;28;20169;-78
2021/03/11 08:56:22;;;;;;;1.42;0.90;;;7.00;99.30;;;;;;5067554;28;20120;-78
2021/03/11 08:58:56;;;;;;;2.25;1.10;;;7.10;98.50;;;;;;5067982;28;20165;-79
2021/03/11 09:01:30;;;;;;;1.87;1.23;;;7.10;98.30;;;;;;5084095;28;20738;-79
2021/03/11 09:04:00;;;;;;;1.65;0.90;;;7.20;97.40;;;;;;5068106;28;20159;-79
2021/03/11 09:06:55;;;;;;;1.98;0.75;;;7.30;96.50;;;;;;5070139;28;20101;-79
2021/03/11 09:09:44;;;;;;;1.92;1.10;;;7.50;98.20;;;;;;5075706;28;20088;-79
2021/03/11 09:12:29;;;;;;;1.15;0.73;;;7.50;97.50;;;;;;5070341;28;20087;-79
2021/03/11 09:14:57;;;;;;;3.22;1.13;;;7.50;97.50;;;;;;5069320;28;20087;-79
2021/03/11 09:17:25;;;;;;;3.40;1.40;;;7.60;97.40;;;;;;5051430;28;20097;-79
2021/03/11 09:20:00;;;;;;;4.00;1.70;;;7.50;98.30;;;;;;5062857;28;20487;-79
2021/03/11 09:22:32;;;;;;;1.92;1.30;;;7.60;98.70;;;;;;5071409;28;20101;-79
2021/03/11 09:24:57;;;;;;;3.33;1.48;;;7.50;99.40;;;;;;5068489;28;20567;-79
2021/03/11 09:27:28;;;;;;;2.85;1.83;;;7.50;99.70;;;;;;5069920;28;20101;-79
2021/03/11 09:29:56;;;;;;;1.95;1.20;;;7.50;99.60;;;;;;5059362;28;20686;-80
2021/03/11 09:32:27;;;;;;;2.95;1.77;;;7.50;99.90;;;;;;5065531;28;20371;-79
2021/03/11 09:34:58;;;;;;;3.47;1.02;;;7.50;99.90;;;;;;5068596;28;20097;-79
2021/03/11 09:37:45;;;;;;;2.75;1.30;;;7.50;99.90;;;;;;5059407;28;20101;-80
2021/03/11 09:40:13;;;;;;;3.60;1.90;;;7.50;99.90;;;;;;5057552;28;20084;-79
2021/03/11 09:43:18;;;;;;;3.30;1.17;;;7.60;99.90;;;;;;5060437;28;20078;-79
2021/03/11 09:45:52;;;;;;;5.07;1.90;;;7.60;99.90;;;;;;5035505;28;20077;-79
2021/03/11 09:48:20;;;;;;;3.13;1.95;;;7.60;99.90;;;;;;5054129;28;20900;-79
2021/03/11 09:51:06;;;;;;;2.42;1.45;;;7.60;99.60;;;;;;5060832;28;20116;-79
2021/03/11 09:53:45;;;;;;;2.63;1.23;;;7.60;99.50;;;;;;5082542;28;20546;-79
2021/03/11 09:56:22;;;;;;;3.25;1.40;;;7.60;99.90;;;;;;5048938;28;20096;-79
2021/03/11 09:59:03;;;;;;;10.07;1.77;;;7.70;99.30;;;;;;5066266;28;20278;-79
2021/03/11 10:01:34;;;;;;;0.88;0.75;;;7.80;99.90;;;;;;5057166;28;20073;-80
2021/03/11 10:04:15;;;;;;;1.80;1.15;;;7.80;99.90;;;;;;5058467;28;20112;-80
2021/03/11 10:06:55;;;;;;;1.50;1.00;;;7.90;99.70;;;;;;5072934;28;20089;-79
2021/03/11 10:09:23;;;;;;;2.67;1.20;;;8.00;99.90;;;;;;5070784;28;20077;-79
2021/03/11 10:11:54;;;;;;;1.60;1.15;;;7.90;99.90;;;;;;5058799;28;20096;-79
2021/03/11 10:14:29;;;;;;;7.82;1.90;;;8.10;98.80;;;;;;5057240;28;20107;-79
2021/03/11 10:16:56;;;;;;;5.95;3.25;;;8.20;98.40;;;;;;5073845;28;20531;-78
2021/03/11 10:19:28;;;;;;;3.55;1.52;;;8.20;99.90;;;;;;5069509;28;20528;-79
2021/03/11 10:21:58;;;;;;;3.70;1.30;;;8.30;99.20;;;;;;5073530;28;20084;-78
2021/03/11 10:24:36;;;;;;;2.42;1.10;;;8.30;99.90;;;;;;5072792;28;20073;-78
2021/03/11 10:27:17;;;;;;;1.88;1.20;;;8.30;99.90;;;;;;5068259;28;20146;-79
2021/03/11 10:29:43;;;;;;;1.83;1.13;;;8.40;99.90;;;;;;5088361;28;20621;-78
2021/03/11 10:32:08;;;;;;;2.88;1.30;;;8.40;99.90;;;;;;5068990;28;20169;-78
2021/03/11 10:34:48;;;;;;;3.35;1.00;;;8.60;99.20;;;;;;5070548;28;20105;-79
2021/03/11 10:37:26;;;;;;;6.28;1.10;;;8.50;99.90;;;;;;5068265;28;20096;-78
2021/03/11 10:39:58;;;;;;;2.38;1.55;;;8.60;99.90;;;;;;5067596;28;20622;-78
2021/03/11 10:42:25;;;;;;;1.48;1.30;;;8.70;99.80;;;;;;5102353;27;20104;-78
2021/03/11 10:45:03;;;;;;;6.22;1.65;;;8.80;99.30;;;;;;5069941;28;20107;-78
2021/03/11 10:47:29;;;;;;;2.88;1.10;;;8.90;99.90;;;;;;5086471;28;20093;-78
2021/03/11 10:49:55;;;;;;;4.32;1.35;;;8.90;99.90;;;;;;5097152;27;20130;-79
2021/03/11 10:52:21;;;;;;;2.85;1.63;;;9.00;99.70;;;;;;5056047;28;20122;-78
2021/03/11 10:54:47;;;;;;;3.00;1.45;;;9.10;99.90;;;;;;5066422;28;20081;-79
2021/03/11 10:57:18;;;;;;;2.25;1.33;;;9.20;99.70;;;;;;5068548;28;20112;-78
2021/03/11 10:59:59;;;;;;;2.90;1.65;;;9.30;99.60;;;;;;5069830;28;20203;-79
2021/03/11 11:02:27;;;;;;;3.08;1.10;;;9.40;99.90;;;;;;5064752;28;20074;-79
2021/03/11 11:04:54;;;;;;;3.75;1.70;;;9.50;99.90;;;;;;5066906;28;20156;-79
2021/03/11 11:07:21;;;;;;;4.90;1.60;;;9.60;99.90;;;;;;5069011;28;20111;-79
2021/03/11 11:09:48;;;;;;;2.97;1.38;;;9.60;99.90;;;;;;5056202;28;20081;-78
2021/03/11 11:12:18;;;;;;;1.80;1.20;;;9.80;99.90;;;;;;5071712;28;20084;-79
2021/03/11 11:14:46;;;;;;;1.67;0.90;;;9.90;99.90;;;;;;5054615;28;20439;-80
2021/03/11 11:17:13;;;;;;;1.13;0.77;;;10.00;99.90;;;;;;5097585;27;20085;-79
2021/03/11 11:19:40;;;;;;;2.55;1.05;;;10.20;99.90;;;;;;5072500;28;20073;-79
2021/03/11 11:22:08;;;;;;;4.53;1.63;;;10.20;99.30;;;;;;5067741;28;20120;-79
2021/03/11 11:24:35;;;;;;;3.90;1.27;;;10.40;99.90;;;;;;5055849;28;20191;-79
2021/03/11 11:27:00;;;;;;;1.48;0.93;;;10.50;99.90;;;;;;5065099;28;20125;-79
2021/03/11 11:29:27;;;;;;;1.27;0.80;;;10.70;99.90;;;;;;5058185;28;20084;-79
2021/03/11 11:31:53;;;;;;;1.65;0.80;;;10.80;99.90;;;;;;5072155;28;20112;-79
2021/03/11 11:34:19;;;;;;;1.38;0.73;;;10.80;99.90;;;;;;5068699;28;20442;-80
2021/03/11 11:36:47;;;;;;;1.98;0.52;;;11.00;99.90;;;;;;5071987;28;20116;-79
2021/03/11 11:39:13;;;;;;;1.60;1.00;;;11.20;99.90;;;;;;5072455;28;20096;-80
2021/03/11 11:41:40;;;;;;;1.95;1.15;;;10.90;99.90;;;;;;5071452;28;20065;-80
2021/03/11 11:44:09;;;;;;;5.20;0.82;;;11.10;99.90;;;;;;5069690;28;20199;-80
2021/03/11 11:46:35;;;;;;;0.73;0.60;;;11.50;99.90;;;;;;5069092;28;20207;-80
2021/03/11 11:49:02;;;;;;;0.90;0.43;;;11.70;99.90;;;;;;5069177;28;20082;-80
2021/03/11 11:51:28;;;;;;;0.60;0.40;;;11.70;99.90;;;;;;5065950;28;20512;-80
2021/03/11 11:53:54;;;;;;;1.23;0.50;;;11.90;99.70;;;;;;5067761;28;20081;-80
2021/03/11 11:56:20;;;;;;;2.38;0.50;;;12.10;98.70;;;;;;5054319;28;20096;-80
2021/03/11 11:58:46;;;;;;;4.82;0.35;;;12.00;99.70;;;;;;5067779;28;20077;-80
2021/03/11 12:01:16;;;;;;;3.63;0.55;;;12.20;98.30;;;;;;5069261;28;20069;-80
2021/03/11 12:06:32;;;;;;;1.40;0.30;;;12.70;98.80;;;;;;5078012;28;20118;-81
2021/03/11 12:08:58;;;;;;;1.05;0.47;;;12.70;98.20;;;;;;5059982;28;20469;-80
2021/03/11 12:11:27;;;;;;;1.60;0.80;;;13.00;97.10;;;;;;5066778;28;20084;-81
2021/03/11 12:13:52;;;;;;;4.38;1.10;;;13.10;96.90;;;;;;5070027;28;20078;-81
2021/03/11 12:16:18;;;;;;;2.85;0.70;;;13.10;96.50;;;;;;5067457;28;20093;-80
2021/03/11 12:18:44;;;;;;;6.82;1.00;;;13.30;96.30;;;;;;5070819;28;20122;-80
2021/03/11 12:21:09;;;;;;;3.75;0.57;;;13.20;96.50;;;;;;5061424;28;20081;-80
2021/03/11 12:23:35;;;;;;;1.27;0.52;;;13.40;95.80;;;;;;5074094;28;20073;-81
2021/03/11 12:26:01;;;;;;;1.60;0.30;;;13.10;96.70;;;;;;5072006;28;20100;-81
2021/03/11 12:28:27;;;;;;;0.82;0.32;;;13.20;97.40;;;;;;5072401;28;20193;-81
2021/03/11 12:30:53;;;;;;;2.35;0.60;;;13.20;96.60;;;;;;5069112;28;20500;-81
2021/03/11 12:33:19;;;;;;;0.85;0.50;;;13.30;97.00;;;;;;5072190;28;20083;-80
2021/03/11 12:35:46;;;;;;;0.55;0.30;;;13.30;96.70;;;;;;5073911;28;20088;-81
2021/03/11 12:38:13;;;;;;;1.00;0.20;;;13.40;96.60;;;;;;5071285;28;20084;-81
2021/03/11 12:40:38;;;;;;;1.67;0.50;;;13.40;96.80;;;;;;5067630;28;20119;-81
2021/03/11 12:43:04;;;;;;;1.20;0.63;;;13.30;97.50;;;;;;5063170;28;20090;-81
2021/03/11 12:45:30;;;;;;;1.63;1.15;;;13.20;97.60;;;;;;5060693;28;20077;-80
2021/03/11 12:47:56;;;;;;;1.33;0.60;;;13.50;97.00;;;;;;5064861;28;20089;-80
2021/03/11 12:50:23;;;;;;;3.38;0.50;;;13.50;96.90;;;;;;5073166;28;20077;-81
2021/03/11 12:52:49;;;;;;;1.10;0.40;;;13.60;96.70;;;;;;5067954;28;20081;-79
2021/03/11 12:55:15;;;;;;;1.80;0.50;;;13.60;96.50;;;;;;5063388;28;20085;-80
2021/03/11 12:57:41;;;;;;;2.55;0.90;;;13.80;95.70;;;;;;5073517;28;20185;-80
2021/03/11 13:00:14;;;;;;;1.88;0.52;;;13.60;95.60;;;;;;5073876;28;20077;-80
2021/03/11 13:02:40;;;;;;;1.67;1.25;;;13.60;96.10;;;;;;5073134;28;20065;-80
2021/03/11 13:05:07;;;;;;;2.08;0.50;;;13.60;96.20;;;;;;5064861;28;20077;-80
2021/03/11 13:07:33;;;;;;;3.35;0.95;;;13.60;96.30;;;;;;5067092;28;20640;-80
2021/03/11 13:09:59;;;;;;;2.25;1.05;;;13.70;96.60;;;;;;5087948;28;20088;-80